createdAt,value
2022-09-12T00:00:00.245Z,30.43
2022-09-12T00:02:27.843Z,28.47
2022-09-12T00:04:55.447Z,32.33
2022-09-12T00:07:23.402Z,35.47
2022-09-12T00:09:52.509Z,32.17
2022-09-12T00:12:20.126Z,34.87
2022-09-12T00:14:47.709Z,31.83
2022-09-12T00:17:15.201Z,32.90
2022-09-12T00:19:42.780Z,31.57
2022-09-12T00:22:10.475Z,34.00
2022-09-12T00:24:40.735Z,41.10
2022-09-12T00:27:09.720Z,40.00
2022-09-12T00:29:37.523Z,35.50
2022-09-12T00:32:05.465Z,34.57
2022-09-12T00:34:33.091Z,31.37
2022-09-12T00:37:00.631Z,30.87
2022-09-12T00:39:28.331Z,32.03
2022-09-12T00:41:55.905Z,34.30
2022-09-12T00:44:58.006Z,37.97
2022-09-12T00:47:28.205Z,35.83
2022-09-12T00:50:00.903Z,33.30
2022-09-12T00:52:30.828Z,29.47
2022-09-12T00:55:01.747Z,28.17
2022-09-12T00:57:32.246Z,33.53
2022-09-12T01:00:09.267Z,32.03
2022-09-12T01:02:36.909Z,40.90
2022-09-12T01:05:04.571Z,34.97
2022-09-12T01:07:33.417Z,30.07
2022-09-12T01:10:04.120Z,34.20
2022-09-12T01:12:33.015Z,29.60
2022-09-12T01:15:01.911Z,33.47
2022-09-12T01:17:33.625Z,31.97
2022-09-12T01:20:25.182Z,32.70
2022-09-12T01:23:12.634Z,30.93
2022-09-12T01:25:52.669Z,38.67
2022-09-12T01:28:44.495Z,35.07
2022-09-12T01:31:17.745Z,30.50
2022-09-12T01:33:56.653Z,36.37
2022-09-12T01:36:35.759Z,35.10
2022-09-12T01:39:05.215Z,34.07
2022-09-12T01:41:43.989Z,36.20
2022-09-12T01:44:16.206Z,36.33
2022-09-12T01:46:49.053Z,35.33
2022-09-12T01:49:19.133Z,33.47
2022-09-12T01:51:54.768Z,37.73
2022-09-12T01:54:27.021Z,34.20
2022-09-12T01:56:57.178Z,37.43
2022-09-12T01:59:27.837Z,39.00
2022-09-12T02:01:59.820Z,33.63
2022-09-12T02:04:34.102Z,37.80
2022-09-12T02:07:07.767Z,35.70
2022-09-12T02:09:37.934Z,36.37
2022-09-12T02:12:06.719Z,35.63
2022-09-12T02:14:38.794Z,30.00
2022-09-12T02:17:10.940Z,30.43
2022-09-12T02:19:43.017Z,33.83
2022-09-12T02:22:13.119Z,36.40
2022-09-12T02:24:43.625Z,34.07
2022-09-12T02:27:13.602Z,39.20
2022-09-12T02:29:41.506Z,38.13
2022-09-12T02:32:17.199Z,37.80
2022-09-12T02:34:49.397Z,30.53
2022-09-12T02:37:26.086Z,36.83
2022-09-12T02:39:55.343Z,36.43
2022-09-12T02:42:23.774Z,30.43
2022-09-12T02:44:52.603Z,33.90
2022-09-12T02:47:26.378Z,32.80
2022-09-12T02:49:54.373Z,32.37
2022-09-12T02:52:22.376Z,29.20
2022-09-12T02:54:50.258Z,33.63
2022-09-12T02:57:22.626Z,30.30
2022-09-12T02:59:51.890Z,34.20
2022-09-12T03:02:29.298Z,32.37
2022-09-12T03:05:10.587Z,32.57
2022-09-12T03:07:53.232Z,29.53
2022-09-12T03:10:25.204Z,34.60
2022-09-12T03:12:59.418Z,31.20
2022-09-12T03:15:33.803Z,31.77
2022-09-12T03:18:14.539Z,34.63
2022-09-12T03:20:50.518Z,28.90
2022-09-12T03:23:27.040Z,31.70
2022-09-12T03:25:58.551Z,33.70
2022-09-12T03:28:26.297Z,30.13
2022-09-12T03:30:55.967Z,31.30
2022-09-12T03:33:26.174Z,29.37
2022-09-12T03:35:54.689Z,30.90
2022-09-12T03:38:22.210Z,30.80
2022-09-12T03:40:54.574Z,36.33
2022-09-12T03:43:22.530Z,29.67
2022-09-12T03:45:52.821Z,31.70
2022-09-12T03:48:20.390Z,26.43
2022-09-12T03:50:49.241Z,28.30
2022-09-12T03:53:17.469Z,27.53
2022-09-12T03:55:45.225Z,28.10
2022-09-12T03:58:13.172Z,27.13
2022-09-12T04:00:40.972Z,24.00
2022-09-12T04:03:09.179Z,28.50
2022-09-12T04:05:37.049Z,26.67
2022-09-12T04:08:06.343Z,25.73
2022-09-12T04:10:33.941Z,26.23
2022-09-12T04:13:01.514Z,26.37
2022-09-12T04:15:29.168Z,27.23
2022-09-12T04:17:56.833Z,26.93
2022-09-12T04:20:24.478Z,32.07
2022-09-12T04:22:52.988Z,28.13
2022-09-12T04:25:21.945Z,26.60
2022-09-12T04:27:49.459Z,27.20
2022-09-12T04:30:17.066Z,32.00
2022-09-12T04:32:44.612Z,27.40
2022-09-12T04:35:13.033Z,26.03
2022-09-12T04:37:40.818Z,28.10
2022-09-12T04:40:10.001Z,29.17
2022-09-12T04:42:39.223Z,28.53
2022-09-12T04:45:08.473Z,26.37
2022-09-12T04:47:36.338Z,27.37
2022-09-12T04:50:05.333Z,24.87
2022-09-12T04:52:32.946Z,27.80
2022-09-12T04:55:00.738Z,27.53
2022-09-12T04:57:28.309Z,27.03
2022-09-12T04:59:57.167Z,30.47
2022-09-12T05:02:25.093Z,25.93
2022-09-12T05:04:54.176Z,28.17
2022-09-12T05:07:27.714Z,29.97
2022-09-12T05:09:55.313Z,22.60
2022-09-12T05:12:23.101Z,25.67
2022-09-12T05:14:50.603Z,26.27
2022-09-12T05:17:20.673Z,25.33
2022-09-12T05:19:48.952Z,25.20
2022-09-12T05:22:16.486Z,22.43
2022-09-12T05:24:54.007Z,20.40
2022-09-12T05:27:21.914Z,25.03
2022-09-12T05:29:49.428Z,24.97
2022-09-12T05:32:16.938Z,24.90
2022-09-12T05:34:46.804Z,24.60
2022-09-12T05:37:15.008Z,24.70
2022-09-12T05:39:42.808Z,22.40
2022-09-12T05:42:11.013Z,23.70
2022-09-12T05:44:38.500Z,21.90
2022-09-12T05:47:06.776Z,23.73
2022-09-12T05:49:36.361Z,20.43
2022-09-12T05:52:05.254Z,19.87
2022-09-12T05:54:34.296Z,20.90
2022-09-12T05:57:01.921Z,17.23
2022-09-12T05:59:29.528Z,17.60
2022-09-12T06:01:57.283Z,20.50
2022-09-12T06:04:25.406Z,18.20
2022-09-12T06:06:53.203Z,18.53
2022-09-12T06:09:22.679Z,16.97
2022-09-12T06:11:52.016Z,19.37
2022-09-12T06:14:19.916Z,17.63
2022-09-12T06:16:48.580Z,21.93
2022-09-12T06:19:17.651Z,17.60
2022-09-12T06:21:45.547Z,16.23
2022-09-12T06:24:13.071Z,18.83
2022-09-12T06:26:42.338Z,21.57
2022-09-12T06:29:11.572Z,16.77
2022-09-12T06:31:41.289Z,17.60
2022-09-12T06:34:11.837Z,19.33
2022-09-12T06:36:41.519Z,18.43
2022-09-12T06:39:12.431Z,13.67
2022-09-12T06:41:43.807Z,18.57
2022-09-12T06:44:15.862Z,19.10
2022-09-12T06:46:44.157Z,15.43
2022-09-12T06:49:12.265Z,15.37
2022-09-12T06:51:41.742Z,15.37
2022-09-12T06:54:10.632Z,16.87
2022-09-12T06:56:38.243Z,16.13
2022-09-12T06:59:06.599Z,16.10
2022-09-12T07:01:35.595Z,14.07
2022-09-12T07:04:05.576Z,15.80
2022-09-12T07:06:38.469Z,14.60
2022-09-12T07:09:07.813Z,14.30
2022-09-12T07:11:37.167Z,15.90
2022-09-12T07:14:06.840Z,14.27
2022-09-12T07:16:37.276Z,14.33
2022-09-12T07:19:07.135Z,12.57
2022-09-12T07:21:40.197Z,12.83
2022-09-12T07:24:09.703Z,14.00
2022-09-12T07:26:37.724Z,15.30
2022-09-12T07:29:34.922Z,15.10
2022-09-12T07:31:54.722Z,14.60
2022-09-12T07:34:22.862Z,18.67
2022-09-12T07:36:50.566Z,15.83
2022-09-12T07:39:18.355Z,19.53
2022-09-12T07:41:46.343Z,15.63
2022-09-12T07:44:14.370Z,15.07
2022-09-12T07:46:42.389Z,14.87
2022-09-12T07:49:13.299Z,15.60
2022-09-12T07:51:41.093Z,17.90
2022-09-12T07:54:09.302Z,18.83
2022-09-12T07:56:39.189Z,16.53
2022-09-12T07:59:06.910Z,19.00
2022-09-12T08:01:34.644Z,22.23
2022-09-12T08:04:03.405Z,18.20
2022-09-12T08:06:33.739Z,17.33
2022-09-12T08:09:03.624Z,18.27
2022-09-12T08:11:31.358Z,16.07
2022-09-12T08:13:59.923Z,17.40
2022-09-12T08:16:29.478Z,13.73
2022-09-12T08:18:57.374Z,17.00
2022-09-12T08:21:26.594Z,19.50
2022-09-12T08:23:57.187Z,14.87
2022-09-12T08:26:25.121Z,16.40
2022-09-12T08:28:53.163Z,16.63
2022-09-12T08:31:22.358Z,17.43
2022-09-12T08:33:49.931Z,16.10
2022-09-12T08:36:19.879Z,14.90
2022-09-12T08:38:49.573Z,13.00
2022-09-12T08:41:27.977Z,16.73
2022-09-12T08:44:17.437Z,15.77
2022-09-12T08:46:51.617Z,16.63
2022-09-12T08:49:27.163Z,14.53
2022-09-12T08:51:56.099Z,19.23
2022-09-12T08:54:27.352Z,19.57
2022-09-12T08:57:01.375Z,12.83
2022-09-12T08:59:29.370Z,13.27
2022-09-12T09:01:58.557Z,13.23
2022-09-12T09:04:35.567Z,16.53
2022-09-12T09:07:21.748Z,13.40
2022-09-12T09:10:08.047Z,17.93
2022-09-12T09:12:41.815Z,11.73
2022-09-12T09:15:24.838Z,12.00
2022-09-12T09:17:54.871Z,11.33
2022-09-12T09:20:29.667Z,10.37
2022-09-12T09:23:02.374Z,9.70
2022-09-12T09:25:40.143Z,11.77
2022-09-12T09:28:14.778Z,10.00
2022-09-12T09:30:44.355Z,9.50
2022-09-12T09:33:17.961Z,12.47
2022-09-12T09:35:46.668Z,9.00
2022-09-12T09:38:23.850Z,12.63
2022-09-12T09:41:01.345Z,8.77
2022-09-12T09:43:30.312Z,6.83
2022-09-12T09:45:59.298Z,11.03
2022-09-12T09:48:29.041Z,12.50
2022-09-12T09:50:59.035Z,7.63
2022-09-12T09:53:36.232Z,8.83
2022-09-12T09:56:08.130Z,9.93
2022-09-12T09:58:37.534Z,8.47
2022-09-12T10:01:06.688Z,8.07
2022-09-12T10:03:35.766Z,8.90
2022-09-12T10:06:08.088Z,7.13
2022-09-12T10:08:37.123Z,5.37
2022-09-12T10:11:07.010Z,8.27
2022-09-12T10:13:39.077Z,7.67
2022-09-12T10:16:18.085Z,8.63
2022-09-12T10:18:46.209Z,9.43
2022-09-12T10:21:23.384Z,5.77
2022-09-12T10:23:54.278Z,7.40
2022-09-12T10:26:22.451Z,7.03
2022-09-12T10:28:54.437Z,5.03
2022-09-12T10:31:29.418Z,6.00
2022-09-12T10:33:58.543Z,8.80
2022-09-12T10:36:27.156Z,7.50
2022-09-12T10:38:56.605Z,6.20
2022-09-12T10:41:24.914Z,6.13
2022-09-12T10:43:54.101Z,3.97
2022-09-12T10:46:32.935Z,3.87
2022-09-12T10:49:24.098Z,3.70
2022-09-12T10:51:52.919Z,5.07
2022-09-12T10:54:22.996Z,5.67
2022-09-12T10:57:01.088Z,4.00
2022-09-12T10:59:42.414Z,6.03
2022-09-12T11:02:16.000Z,3.10
2022-09-12T11:04:54.314Z,2.50
2022-09-12T11:07:32.285Z,3.97
2022-09-12T11:10:05.873Z,3.73
2022-09-12T11:12:39.177Z,3.67
2022-09-12T11:15:18.147Z,3.03
2022-09-12T11:17:51.883Z,2.70
2022-09-12T11:20:43.696Z,2.90
2022-09-12T11:23:27.035Z,2.40
2022-09-12T11:25:58.809Z,4.27
2022-09-12T11:28:32.320Z,2.13
2022-09-12T11:31:15.321Z,2.70
2022-09-12T11:33:44.633Z,6.27
2022-09-12T11:36:21.287Z,2.40
2022-09-12T11:38:53.597Z,2.97
2022-09-12T11:41:26.489Z,2.83
2022-09-12T11:43:58.141Z,2.93
2022-09-12T11:46:33.114Z,4.37
2022-09-12T11:49:05.162Z,8.60
2022-09-12T11:51:36.689Z,6.47
2022-09-12T11:54:12.039Z,3.13
2022-09-12T11:56:43.034Z,3.33
2022-09-12T11:59:15.110Z,2.80
2022-09-12T12:01:48.673Z,2.93
2022-09-12T12:04:18.545Z,2.40
2022-09-12T12:06:52.325Z,6.67
2022-09-12T12:09:20.015Z,2.67
2022-09-12T12:11:50.381Z,4.43
2022-09-12T12:14:20.448Z,3.13
2022-09-12T12:16:50.331Z,3.20
2022-09-12T12:19:36.642Z,2.90
2022-09-12T12:22:09.846Z,3.13
2022-09-12T12:24:55.587Z,2.90
2022-09-12T12:27:46.936Z,5.57
2022-09-12T12:31:00.522Z,2.60
2022-09-12T12:33:55.981Z,2.30
2022-09-12T12:36:50.122Z,2.27
2022-09-12T12:40:00.981Z,3.97
2022-09-12T12:43:07.602Z,3.10
2022-09-12T12:46:09.635Z,1.70
2022-09-12T12:49:01.838Z,5.40
2022-09-12T12:51:41.737Z,4.43
2022-09-12T12:54:57.472Z,2.57
2022-09-12T12:57:48.441Z,2.83
2022-09-12T13:00:34.438Z,3.80
2022-09-12T13:03:05.714Z,3.80
2022-09-12T13:05:42.099Z,3.07
2022-09-12T13:08:11.667Z,2.60
2022-09-12T13:10:39.563Z,2.47
2022-09-12T13:13:08.808Z,2.70
2022-09-12T13:15:49.773Z,2.53
2022-09-12T13:18:21.909Z,5.57
2022-09-12T13:20:54.774Z,3.43
2022-09-12T13:23:23.987Z,2.70
2022-09-12T13:25:56.455Z,2.20
2022-09-12T13:28:26.279Z,5.73
2022-09-12T13:31:01.057Z,2.13
2022-09-12T13:33:36.850Z,2.00
2022-09-12T13:36:37.639Z,2.00
2022-09-12T13:39:16.353Z,2.10
2022-09-12T13:42:17.741Z,5.27
2022-09-12T13:44:47.687Z,3.53
2022-09-12T13:47:16.362Z,2.30
2022-09-12T13:49:44.406Z,2.47
2022-09-12T13:52:18.687Z,2.73
2022-09-12T13:54:49.023Z,2.10
2022-09-12T13:57:31.354Z,3.40
2022-09-12T14:00:00.113Z,3.80
2022-09-12T14:02:31.288Z,2.43
2022-09-12T14:05:10.537Z,2.53
2022-09-12T14:07:45.393Z,3.73
2022-09-12T14:10:18.248Z,2.23
2022-09-12T14:12:50.677Z,3.00
2022-09-12T14:15:22.206Z,2.30
2022-09-12T14:17:52.230Z,5.53
2022-09-12T14:20:23.231Z,6.37
2022-09-12T14:22:53.147Z,2.83
2022-09-12T14:25:23.900Z,3.87
2022-09-12T14:27:53.897Z,2.80
2022-09-12T14:30:24.497Z,2.30
2022-09-12T14:33:07.332Z,2.30
2022-09-12T14:35:34.912Z,3.17
2022-09-12T14:38:09.630Z,2.13
2022-09-12T14:40:42.310Z,2.20
2022-09-12T14:43:21.230Z,2.87
2022-09-12T14:45:54.949Z,2.70
2022-09-12T14:48:22.634Z,8.30
2022-09-12T14:50:51.248Z,2.57
2022-09-12T14:53:32.814Z,3.23
2022-09-12T14:56:08.859Z,5.23
2022-09-12T14:58:37.035Z,5.20
2022-09-12T15:01:23.539Z,3.10
2022-09-12T15:03:54.019Z,4.10
2022-09-12T15:06:25.497Z,2.83
2022-09-12T15:08:56.420Z,6.33
2022-09-12T15:11:24.617Z,3.23
2022-09-12T15:13:52.954Z,2.97
2022-09-12T15:16:20.651Z,2.80
2022-09-12T15:18:48.173Z,2.87
2022-09-12T15:21:18.743Z,3.00
2022-09-12T15:23:48.181Z,2.53
2022-09-12T15:26:18.986Z,3.23
2022-09-12T15:28:47.146Z,4.00
2022-09-12T15:31:22.354Z,2.93
2022-09-12T15:33:50.358Z,3.37
2022-09-12T15:36:19.349Z,9.30
2022-09-12T15:38:48.053Z,5.17
2022-09-12T15:41:19.090Z,5.63
2022-09-12T15:43:47.457Z,3.80
2022-09-12T15:46:16.911Z,3.70
2022-09-12T15:48:44.607Z,3.97
2022-09-12T15:51:15.379Z,7.07
2022-09-12T15:53:43.751Z,2.93
2022-09-12T15:56:11.608Z,3.00
2022-09-12T15:58:57.259Z,2.93
2022-09-12T16:01:26.448Z,7.03
2022-09-12T16:03:54.364Z,3.77
2022-09-12T16:06:22.163Z,13.50
2022-09-12T16:08:49.703Z,2.67
2022-09-12T16:11:20.945Z,3.00
2022-09-12T16:13:49.842Z,2.83
2022-09-12T16:16:17.636Z,2.63
2022-09-12T16:18:45.383Z,2.87
2022-09-12T16:21:15.568Z,2.87
2022-09-12T16:23:43.768Z,2.70
2022-09-12T16:26:11.553Z,2.80
2022-09-12T16:28:39.331Z,3.20
2022-09-12T16:31:09.434Z,2.60
2022-09-12T16:33:38.307Z,2.63
2022-09-12T16:36:07.828Z,2.80
2022-09-12T16:38:35.960Z,7.73
2022-09-12T16:41:04.549Z,4.40
2022-09-12T16:43:33.377Z,3.17
2022-09-12T16:46:03.108Z,2.50
2022-09-12T16:48:33.576Z,3.73
2022-09-12T16:51:02.458Z,2.10
2022-09-12T16:53:31.517Z,2.63
2022-09-12T16:55:59.137Z,2.53
2022-09-12T16:58:26.813Z,3.87
2022-09-12T17:01:01.404Z,2.27
2022-09-12T17:03:29.046Z,2.80
2022-09-12T17:06:01.603Z,4.80
2022-09-12T17:08:29.329Z,4.23
2022-09-12T17:11:01.343Z,4.30
2022-09-12T17:13:46.619Z,5.13
2022-09-12T17:16:16.655Z,2.40
2022-09-12T17:18:44.253Z,3.87
2022-09-12T17:21:13.639Z,3.67
2022-09-12T17:23:42.014Z,2.40
2022-09-12T17:26:10.760Z,2.70
2022-09-12T17:28:39.160Z,2.57
2022-09-12T17:31:09.668Z,6.30
2022-09-12T17:33:37.994Z,5.40
2022-09-12T17:36:07.276Z,3.90
2022-09-12T17:38:37.261Z,3.23
2022-09-12T17:41:09.223Z,2.73
2022-09-12T17:43:37.841Z,6.00
2022-09-12T17:46:05.813Z,3.40
2022-09-12T17:48:33.413Z,2.47
2022-09-12T17:51:08.717Z,3.77
2022-09-12T17:53:38.451Z,3.27
2022-09-12T17:56:07.168Z,2.80
2022-09-12T17:58:35.573Z,3.33
2022-09-12T18:01:20.765Z,2.80
2022-09-12T18:03:49.026Z,2.70
2022-09-12T18:06:16.811Z,3.20
2022-09-12T18:08:45.960Z,6.73
2022-09-12T18:11:13.485Z,2.80
2022-09-12T18:13:41.167Z,3.33
2022-09-12T18:16:11.249Z,3.10
2022-09-12T18:18:39.282Z,4.37
2022-09-12T18:21:08.698Z,5.47
2022-09-12T18:23:36.406Z,5.13
2022-09-12T18:26:07.264Z,6.07
2022-09-12T18:28:35.840Z,6.47
2022-09-12T18:31:03.626Z,4.00
2022-09-12T18:33:33.026Z,3.67
2022-09-12T18:36:04.720Z,6.40
2022-09-12T18:38:32.458Z,3.27
2022-09-12T18:41:05.383Z,3.80
2022-09-12T18:43:33.274Z,3.53
2022-09-12T18:46:04.507Z,6.77
2022-09-12T18:48:33.091Z,4.20
2022-09-12T18:51:06.851Z,7.93
2022-09-12T18:53:34.871Z,9.13
2022-09-12T18:56:03.759Z,6.13
2022-09-12T18:58:33.315Z,3.93
2022-09-12T19:01:00.861Z,6.70
2022-09-12T19:03:28.773Z,5.27
2022-09-12T19:05:56.533Z,7.33
2022-09-12T19:08:24.446Z,7.60
2022-09-12T19:10:58.532Z,8.43
2022-09-12T19:13:26.083Z,5.10
2022-09-12T19:15:55.129Z,5.27
2022-09-12T19:18:22.771Z,5.30
2022-09-12T19:20:52.827Z,4.50
2022-09-12T19:23:20.635Z,8.20
2022-09-12T19:25:56.686Z,4.23
2022-09-12T19:28:24.313Z,7.30
2022-09-12T19:30:52.671Z,5.53
2022-09-12T19:33:21.950Z,4.23
2022-09-12T19:35:49.583Z,4.63
2022-09-12T19:38:17.777Z,7.43
2022-09-12T19:40:46.049Z,4.70
2022-09-12T19:43:13.941Z,5.23
2022-09-12T19:45:47.941Z,4.47
2022-09-12T19:48:15.505Z,5.37
2022-09-12T19:50:44.995Z,5.43
2022-09-12T19:53:13.068Z,4.60
2022-09-12T19:55:40.616Z,5.13
2022-09-12T19:58:08.846Z,5.53
2022-09-12T20:00:36.905Z,3.90
2022-09-12T20:03:05.329Z,6.70
2022-09-12T20:05:33.473Z,4.07
2022-09-12T20:08:03.047Z,6.43
2022-09-12T20:10:31.056Z,5.80
2022-09-12T20:12:58.850Z,4.23
2022-09-12T20:15:26.352Z,6.20
2022-09-12T20:17:55.604Z,5.73
2022-09-12T20:20:25.070Z,5.23
2022-09-12T20:22:53.554Z,5.00
2022-09-12T20:25:22.484Z,4.90
2022-09-12T20:27:50.059Z,5.60
2022-09-12T20:30:17.707Z,4.03
2022-09-12T20:32:45.270Z,4.60
2022-09-12T20:35:13.019Z,6.77
2022-09-12T20:37:41.102Z,5.43
2022-09-12T20:40:09.554Z,5.40
2022-09-12T20:42:38.685Z,5.00
2022-09-12T20:45:07.498Z,6.50
2022-09-12T20:47:35.316Z,4.57
2022-09-12T20:50:02.927Z,3.67
2022-09-12T20:52:30.826Z,6.50
2022-09-12T20:54:58.425Z,5.17
2022-09-12T20:57:25.965Z,3.47
2022-09-12T20:59:55.293Z,5.30
2022-09-12T21:02:23.144Z,3.57
2022-09-12T21:04:50.847Z,5.83
2022-09-12T21:07:18.366Z,4.23
2022-09-12T21:09:46.071Z,4.23
2022-09-12T21:12:13.598Z,3.53
2022-09-12T21:14:41.173Z,3.53
2022-09-12T21:17:10.415Z,3.40
2022-09-12T21:19:38.205Z,3.17
2022-09-12T21:22:05.800Z,4.07
2022-09-12T21:24:33.598Z,5.60
2022-09-12T21:27:04.432Z,3.77
2022-09-12T21:29:32.600Z,3.27
2022-09-12T21:32:16.933Z,4.33
2022-09-12T21:34:44.770Z,4.00
2022-09-12T21:37:12.288Z,3.30
2022-09-12T21:39:39.934Z,3.47
2022-09-12T21:42:08.083Z,4.30
2022-09-12T21:44:35.640Z,2.80
2022-09-12T21:47:03.173Z,4.30
2022-09-12T21:49:32.791Z,13.50
2022-09-12T21:52:00.391Z,3.27
2022-09-12T21:54:27.928Z,3.30
2022-09-12T21:56:55.701Z,4.03
2022-09-12T21:59:23.341Z,4.20
2022-09-12T22:01:50.968Z,8.63
2022-09-12T22:04:18.568Z,5.00
2022-09-12T22:06:47.832Z,8.57
2022-09-12T22:09:16.850Z,5.23
2022-09-12T22:11:45.013Z,6.57
2022-09-12T22:14:13.030Z,3.47
2022-09-12T22:16:40.649Z,3.57
2022-09-12T22:19:08.386Z,4.33
2022-09-12T22:21:56.235Z,4.33
2022-09-12T22:24:30.134Z,4.03
2022-09-12T22:26:58.990Z,4.37
2022-09-12T22:29:26.721Z,4.10
2022-09-12T22:31:54.808Z,3.80
2022-09-12T22:34:22.885Z,4.63
2022-09-12T22:36:50.430Z,3.97
2022-09-12T22:39:18.001Z,4.27
2022-09-12T22:41:47.172Z,6.60
2022-09-12T22:44:15.186Z,4.53
2022-09-12T22:46:42.778Z,6.23
2022-09-12T22:49:10.410Z,5.40
2022-09-12T22:51:38.205Z,5.70
2022-09-12T22:54:05.993Z,6.07
2022-09-12T22:56:33.805Z,4.73
2022-09-12T22:59:02.752Z,4.10
2022-09-12T23:01:31.744Z,9.07
2022-09-12T23:03:59.445Z,4.20
2022-09-12T23:06:27.238Z,4.97
2022-09-12T23:08:56.037Z,3.90
2022-09-12T23:11:24.590Z,4.00
2022-09-12T23:13:52.137Z,8.60
2022-09-12T23:16:22.883Z,5.27
2022-09-12T23:18:50.509Z,5.53
2022-09-12T23:21:19.563Z,9.47
2022-09-12T23:23:47.708Z,6.10
2022-09-12T23:26:17.851Z,4.50
2022-09-12T23:28:49.561Z,8.47
2022-09-12T23:31:18.619Z,5.83
2022-09-12T23:33:48.600Z,6.37
2022-09-12T23:36:16.329Z,5.07
2022-09-12T23:38:45.476Z,5.37
2022-09-12T23:41:15.036Z,7.07
2022-09-12T23:43:45.314Z,5.63
2022-09-12T23:46:13.225Z,5.93
2022-09-12T23:48:41.198Z,4.23
2022-09-12T23:51:10.597Z,4.67
2022-09-12T23:53:38.309Z,4.47
2022-09-12T23:56:07.531Z,4.60
2022-09-12T23:58:35.057Z,4.17
